Time;durP1;ratioP1;P1;durP2;ratioP2;P2;SDS_P1;SDS_P2;PMS_P1;PMS_P2;Temp;Humidity;BMP_temperature;BMP_pressure;BME280_temperature;BME280_humidity;BME280_pressure;Samples;Min_cycle;Max_cycle;Signal;HPM_P1;HPM_P2
2022/01/13 00:01:50;;;;;;;26.70;14.30;;;;;1.20;98345.00;;;;8295150;28;20290;-68
2022/01/13 00:05:53;;;;;;;30.17;14.73;;;;;1.30;98345.00;;;;8294488;28;20220;-67
2022/01/13 00:10:32;;;;;;;31.33;15.23;;;;;1.30;98340.00;;;;8295756;28;20255;-68
2022/01/13 00:14:52;;;;;;;31.00;14.77;;;;;1.40;98338.00;;;;8294761;28;20218;-68
2022/01/13 00:19:32;;;;;;;32.87;14.47;;;;;1.30;98347.00;;;;8295180;28;20221;-68
2022/01/13 00:23:44;;;;;;;32.80;15.87;;;;;1.30;98336.00;;;;8294631;28;20258;-68
2022/01/13 00:28:19;;;;;;;33.33;15.60;;;;;1.30;98344.00;;;;8294950;28;20610;-67
2022/01/13 00:32:26;;;;;;;29.20;14.97;;;;;1.40;98343.00;;;;8265525;28;20218;-68
2022/01/13 00:36:31;;;;;;;34.43;14.57;;;;;1.40;98338.00;;;;8263427;28;20305;-68
2022/01/13 00:41:08;;;;;;;31.00;15.23;;;;;1.30;98336.00;;;;8262566;28;20258;-68
2022/01/13 00:45:15;;;;;;;29.77;15.20;;;;;1.30;98339.00;;;;8292581;28;20249;-68
2022/01/13 00:49:18;;;;;;;31.47;15.67;;;;;1.40;98329.00;;;;8295711;28;20224;-68
2022/01/13 00:53:21;;;;;;;29.53;13.77;;;;;1.40;98335.00;;;;8294347;28;20253;-68
2022/01/13 00:57:27;;;;;;;33.10;15.70;;;;;1.40;98337.00;;;;8295269;28;20219;-68
2022/01/13 01:01:32;;;;;;;30.80;15.60;;;;;1.40;98348.00;;;;8294572;28;20234;-68
2022/01/13 01:05:35;;;;;;;33.23;15.53;;;;;1.40;98361.00;;;;8294311;28;20213;-69
2022/01/13 01:10:12;;;;;;;31.17;15.70;;;;;1.30;98370.00;;;;8295163;28;20231;-66
2022/01/13 01:14:15;;;;;;;30.73;16.23;;;;;1.30;98363.00;;;;8294373;28;20242;-67
2022/01/13 01:18:29;;;;;;;32.97;15.63;;;;;1.40;98375.00;;;;8293912;28;20226;-67
2022/01/13 01:22:42;;;;;;;32.30;15.90;;;;;1.40;98377.00;;;;8295464;28;20219;-68
2022/01/13 01:26:49;;;;;;;30.60;15.57;;;;;1.50;98376.00;;;;8294007;28;20632;-68
2022/01/13 01:31:26;;;;;;;31.83;15.47;;;;;1.50;98374.00;;;;8294408;28;20603;-68
2022/01/13 01:35:31;;;;;;;34.37;16.17;;;;;1.60;98379.00;;;;8296205;28;20220;-68
2022/01/13 01:39:34;;;;;;;31.77;15.80;;;;;1.60;98370.00;;;;8300064;28;20647;-68
2022/01/13 01:43:37;;;;;;;31.93;15.90;;;;;1.70;98364.00;;;;8299969;28;20238;-68
2022/01/13 01:47:41;;;;;;;31.07;15.63;;;;;1.60;98354.00;;;;8300074;28;20264;-68
2022/01/13 01:51:46;;;;;;;37.80;15.57;;;;;1.50;98347.00;;;;8299507;28;20227;-68
2022/01/13 01:55:49;;;;;;;31.37;15.43;;;;;1.40;98348.00;;;;8300008;28;20233;-68
2022/01/13 02:00:27;;;;;;;31.07;14.27;;;;;1.40;98349.00;;;;8299197;28;20275;-68
2022/01/13 02:04:31;;;;;;;36.10;15.53;;;;;1.50;98341.00;;;;8298063;28;20215;-68
2022/01/13 02:09:09;;;;;;;28.87;14.80;;;;;1.50;98342.00;;;;8299396;28;20583;-68
2022/01/13 02:13:18;;;;;;;31.30;15.53;;;;;1.50;98336.00;;;;8298531;28;20218;-68
2022/01/13 02:17:24;;;;;;;30.60;15.00;;;;;1.50;98327.00;;;;8266157;28;20220;-68
2022/01/13 02:21:29;;;;;;;35.33;16.77;;;;;1.50;98324.00;;;;8266092;28;20221;-68
2022/01/13 02:25:32;;;;;;;32.73;15.70;;;;;1.50;98325.00;;;;8264668;28;20556;-68
2022/01/13 02:30:05;;;;;;;32.07;15.50;;;;;1.40;98338.00;;;;8265495;28;20282;-68
2022/01/13 02:34:08;;;;;;;34.37;15.70;;;;;1.30;98338.00;;;;8266588;28;20690;-68
2022/01/13 02:38:13;;;;;;;33.27;15.50;;;;;1.10;98342.00;;;;8266106;28;20223;-66
2022/01/13 02:42:16;;;;;;;34.20;16.20;;;;;0.90;98347.00;;;;8265449;28;20232;-67
2022/01/13 02:46:30;;;;;;;32.13;15.57;;;;;0.80;98330.00;;;;8266077;28;20219;-67
2022/01/13 02:50:59;;;;;;;36.60;17.13;;;;;0.70;98323.00;;;;8265030;28;20715;-67
2022/01/13 02:55:04;;;;;;;34.73;16.30;;;;;0.70;98332.00;;;;8265298;28;20301;-67
2022/01/13 02:59:07;;;;;;;36.77;17.33;;;;;0.70;98340.00;;;;8265377;28;20219;-68
2022/01/13 03:03:12;;;;;;;38.87;17.30;;;;;0.70;98336.00;;;;8305833;23;20234;-66
2022/01/13 03:07:16;;;;;;;37.90;16.10;;;;;0.80;98344.00;;;;8309875;28;20217;-67
2022/01/13 03:11:23;;;;;;;34.03;16.50;;;;;0.90;98331.00;;;;8314343;28;20264;-67
2022/01/13 03:15:26;;;;;;;32.67;15.40;;;;;1.00;98336.00;;;;8313059;28;20226;-67
2022/01/13 03:19:29;;;;;;;33.03;15.23;;;;;1.00;98327.00;;;;8330881;28;20289;-67
2022/01/13 03:23:32;;;;;;;38.80;16.30;;;;;1.10;98325.00;;;;8317810;28;20637;-67
2022/01/13 03:27:37;;;;;;;32.53;15.47;;;;;1.10;98325.00;;;;8305816;28;20290;-67
2022/01/13 03:31:40;;;;;;;36.73;16.77;;;;;1.20;98330.00;;;;8298460;28;20283;-67
2022/01/13 03:35:44;;;;;;;37.07;17.47;;;;;1.20;98334.00;;;;8301187;28;20230;-67
2022/01/13 03:39:47;;;;;;;40.50;17.47;;;;;1.20;98322.00;;;;8312271;28;20241;-67
2022/01/13 03:43:53;;;;;;;40.63;17.83;;;;;1.20;98317.00;;;;8325684;28;20789;-67
2022/01/13 03:47:56;;;;;;;41.10;18.87;;;;;1.30;98330.00;;;;8299016;28;20277;-67
2022/01/13 03:52:54;;;;;;;39.33;18.67;;;;;1.30;98317.00;;;;8290265;28;20235;-67
2022/01/13 03:57:46;;;;;;;37.77;18.50;;;;;1.20;98324.00;;;;8297371;28;20233;-67
2022/01/13 04:02:14;;;;;;;40.17;18.50;;;;;1.20;98334.00;;;;8216907;28;20717;-67
2022/01/13 04:06:38;;;;;;;42.00;18.27;;;;;1.20;98343.00;;;;8266704;28;20230;-67
2022/01/13 04:11:11;;;;;;;37.80;18.23;;;;;1.30;98350.00;;;;8269658;28;20289;-68
2022/01/13 04:15:17;;;;;;;39.77;19.33;;;;;1.30;98353.00;;;;8281752;28;20751;-67
2022/01/13 04:19:22;;;;;;;58.83;24.63;;;;;1.30;98354.00;;;;8281329;28;20255;-67
2022/01/13 04:23:25;;;;;;;41.10;19.03;;;;;1.20;98347.00;;;;8283311;28;20265;-68
2022/01/13 04:27:35;;;;;;;45.83;19.40;;;;;1.20;98360.00;;;;8282971;28;20260;-68
2022/01/13 04:31:41;;;;;;;46.57;19.07;;;;;1.30;98361.00;;;;8271678;28;20266;-67
2022/01/13 04:35:46;;;;;;;41.60;19.00;;;;;1.30;98350.00;;;;8289102;28;20249;-68
2022/01/13 04:39:49;;;;;;;41.23;19.33;;;;;1.20;98337.00;;;;8281674;28;20308;-68
2022/01/13 04:43:52;;;;;;;41.20;19.23;;;;;1.10;98351.00;;;;8283214;28;20260;-66
2022/01/13 04:47:56;;;;;;;38.10;18.87;;;;;1.00;98347.00;;;;8282492;28;20646;-68
2022/01/13 04:52:00;;;;;;;44.20;18.67;;;;;0.90;98351.00;;;;8280281;28;20661;-67
2022/01/13 04:56:10;;;;;;;45.93;20.37;;;;;0.90;98353.00;;;;8309085;28;20306;-67
2022/01/13 05:00:14;;;;;;;45.70;21.03;;;;;0.90;98353.00;;;;8313982;28;20222;-67
2022/01/13 05:04:17;;;;;;;41.13;18.97;;;;;1.00;98358.00;;;;8323348;28;20317;-68
2022/01/13 05:08:22;;;;;;;44.63;19.63;;;;;1.00;98354.00;;;;8316340;28;20312;-69
2022/01/13 05:12:31;;;;;;;40.60;18.97;;;;;1.10;98346.00;;;;8316696;28;20751;-68
2022/01/13 05:16:48;;;;;;;41.90;19.13;;;;;1.20;98353.00;;;;8314445;28;20606;-68
2022/01/13 05:20:58;;;;;;;38.37;18.47;;;;;1.30;98353.00;;;;8300985;28;20224;-67
2022/01/13 05:25:04;;;;;;;38.60;18.60;;;;;1.30;98361.00;;;;8280678;28;20321;-67
2022/01/13 05:29:08;;;;;;;41.70;18.87;;;;;1.40;98372.00;;;;8284816;28;20227;-67
2022/01/13 05:33:11;;;;;;;43.80;19.83;;;;;1.40;98388.00;;;;8279915;28;20343;-68
2022/01/13 05:37:14;;;;;;;41.17;18.67;;;;;1.40;98394.00;;;;8280849;28;20235;-68
2022/01/13 05:41:19;;;;;;;42.70;19.90;;;;;1.30;98394.00;;;;8274713;28;20907;-68
2022/01/13 05:45:28;;;;;;;72.87;34.97;;;;;1.30;98393.00;;;;8279690;28;20745;-67
2022/01/13 05:49:31;;;;;;;290.23;148.80;;;;;1.40;98393.00;;;;8270646;28;20764;-67
2022/01/13 05:53:35;;;;;;;227.13;88.90;;;;;1.40;98398.00;;;;8270226;28;20652;-67
2022/01/13 05:57:39;;;;;;;296.93;106.40;;;;;1.40;98395.00;;;;8269934;28;20318;-67
2022/01/13 06:01:43;;;;;;;67.73;29.57;;;;;1.50;98392.00;;;;8271372;28;20327;-67
2022/01/13 06:05:51;;;;;;;60.23;26.70;;;;;1.40;98392.00;;;;8279255;28;20700;-68
2022/01/13 06:09:54;;;;;;;46.97;22.43;;;;;1.40;98386.00;;;;8284121;28;20227;-68
2022/01/13 06:13:59;;;;;;;43.13;20.07;;;;;1.40;98380.00;;;;8276244;28;20327;-68
2022/01/13 06:18:02;;;;;;;44.90;20.30;;;;;1.30;98377.00;;;;8280779;28;20343;-67
2022/01/13 06:22:05;;;;;;;46.07;20.60;;;;;1.30;98374.00;;;;8275739;28;20732;-68
2022/01/13 06:26:08;;;;;;;49.40;22.73;;;;;1.20;98371.00;;;;8278390;28;20835;-68
2022/01/13 06:30:15;;;;;;;46.50;21.20;;;;;1.30;98385.00;;;;8283542;28;21894;-68
2022/01/13 06:34:18;;;;;;;43.87;21.03;;;;;1.30;98368.00;;;;8279291;28;20685;-68
2022/01/13 06:38:23;;;;;;;46.00;22.93;;;;;1.30;98376.00;;;;8275081;28;20262;-68
2022/01/13 06:42:26;;;;;;;49.27;22.03;;;;;1.30;98378.00;;;;8280206;28;20314;-68
2022/01/13 06:46:31;;;;;;;44.97;21.33;;;;;1.30;98388.00;;;;8274763;28;20327;-67
2022/01/13 06:50:34;;;;;;;48.53;22.50;;;;;1.40;98398.00;;;;8279384;28;20235;-67
2022/01/13 06:54:37;;;;;;;47.50;21.57;;;;;1.40;98408.00;;;;8276557;28;20341;-68
2022/01/13 06:58:44;;;;;;;47.07;21.40;;;;;1.40;98414.00;;;;8276549;28;20266;-67
2022/01/13 07:02:49;;;;;;;46.53;21.87;;;;;1.40;98431.00;;;;8274711;28;20285;-67
2022/01/13 07:06:52;;;;;;;45.37;21.03;;;;;1.30;98436.00;;;;8280972;28;20273;-67
2022/01/13 07:10:55;;;;;;;46.80;20.77;;;;;1.20;98439.00;;;;8272465;28;20707;-68
2022/01/13 07:14:58;;;;;;;42.40;19.30;;;;;1.20;98430.00;;;;8310118;28;20615;-68
2022/01/13 07:19:04;;;;;;;42.67;18.30;;;;;1.20;98433.00;;;;8307210;28;20252;-66
2022/01/13 07:23:07;;;;;;;34.50;15.70;;;;;1.20;98440.00;;;;8312619;28;20248;-66
2022/01/13 07:27:10;;;;;;;40.70;18.00;;;;;1.20;98452.00;;;;8314439;28;20325;-68
2022/01/13 07:31:14;;;;;;;37.20;16.67;;;;;1.30;98462.00;;;;8315595;28;20663;-67
2022/01/13 07:35:19;;;;;;;43.50;17.60;;;;;1.30;98456.00;;;;8310095;28;20298;-67
2022/01/13 07:39:22;;;;;;;44.67;17.10;;;;;1.40;98447.00;;;;8312859;28;20279;-67
2022/01/13 07:43:26;;;;;;;32.43;13.17;;;;;1.40;98446.00;;;;8314897;28;20271;-67
2022/01/13 07:47:29;;;;;;;35.23;14.93;;;;;1.40;98452.00;;;;8314475;28;20696;-67
2022/01/13 07:51:34;;;;;;;43.80;16.90;;;;;1.50;98451.00;;;;8314022;28;20253;-68
2022/01/13 07:55:38;;;;;;;40.33;16.53;;;;;1.60;98461.00;;;;8312608;28;20239;-67
2022/01/13 07:59:41;;;;;;;37.13;14.80;;;;;1.60;98472.00;;;;8308973;28;20262;-68
2022/01/13 08:03:44;;;;;;;42.53;15.77;;;;;1.60;98469.00;;;;8302748;28;20265;-67
2022/01/13 08:07:49;;;;;;;43.27;15.60;;;;;1.60;98459.00;;;;8307614;28;20287;-67
2022/01/13 08:11:52;;;;;;;38.03;15.37;;;;;1.70;98469.00;;;;8313097;28;20636;-67
2022/01/13 08:15:55;;;;;;;38.87;15.37;;;;;1.80;98473.00;;;;8310369;28;20316;-67
2022/01/13 08:19:59;;;;;;;38.30;14.63;;;;;1.90;98460.00;;;;8308886;28;20248;-66
2022/01/13 08:24:04;;;;;;;42.63;15.77;;;;;1.90;98458.00;;;;8310964;28;20304;-65
2022/01/13 08:28:07;;;;;;;42.10;15.33;;;;;1.80;98456.00;;;;8310410;28;20260;-65
2022/01/13 08:32:15;;;;;;;249.40;127.37;;;;;1.90;98469.00;;;;8310513;28;20221;-65
2022/01/13 08:36:18;;;;;;;41.70;15.57;;;;;2.00;98465.00;;;;8314487;28;20888;-64
2022/01/13 08:40:23;;;;;;;39.03;14.83;;;;;2.00;98461.00;;;;8311229;28;20345;-64
2022/01/13 08:44:26;;;;;;;57.93;25.57;;;;;2.10;98478.00;;;;8320718;28;20237;-65
2022/01/13 08:48:29;;;;;;;93.80;39.50;;;;;2.10;98486.00;;;;8320582;28;20256;-66
2022/01/13 08:52:33;;;;;;;48.10;18.63;;;;;2.10;98483.00;;;;8318745;28;20311;-66
2022/01/13 08:56:38;;;;;;;166.87;54.73;;;;;2.10;98493.00;;;;8308827;28;20242;-67
2022/01/13 09:00:42;;;;;;;211.50;67.70;;;;;2.20;98478.00;;;;8311822;28;20749;-68
2022/01/13 09:04:46;;;;;;;477.40;148.90;;;;;2.10;98478.00;;;;8319458;28;20242;-67
2022/01/13 09:08:49;;;;;;;272.03;81.53;;;;;2.10;98489.00;;;;8317624;28;20274;-67
2022/01/13 09:12:54;;;;;;;208.70;114.70;;;;;2.20;98489.00;;;;8317437;28;20250;-67
2022/01/13 09:16:58;;;;;;;48.53;17.73;;;;;2.20;98490.00;;;;8319908;28;20694;-67
2022/01/13 09:21:02;;;;;;;37.93;16.50;;;;;2.20;98480.00;;;;8313996;28;20246;-68
2022/01/13 09:25:06;;;;;;;50.10;18.57;;;;;2.30;98473.00;;;;8316751;28;20242;-68
2022/01/13 09:29:12;;;;;;;36.10;14.10;;;;;2.30;98470.00;;;;8317149;28;20332;-67
2022/01/13 09:33:15;;;;;;;39.13;18.43;;;;;2.30;98474.00;;;;8304053;28;21321;-67
2022/01/13 09:37:18;;;;;;;64.60;34.03;;;;;2.30;98471.00;;;;8315241;28;22582;-68
2022/01/13 09:41:24;;;;;;;38.13;15.77;;;;;2.30;98475.00;;;;8313164;28;20234;-68
2022/01/13 09:45:30;;;;;;;44.97;20.10;;;;;2.30;98473.00;;;;8317161;28;20912;-69
2022/01/13 09:49:33;;;;;;;56.70;28.23;;;;;2.30;98476.00;;;;8317243;28;20226;-66
2022/01/13 09:53:37;;;;;;;39.60;15.33;;;;;2.30;98485.00;;;;8317142;28;20686;-66
2022/01/13 09:57:42;;;;;;;34.83;13.43;;;;;2.50;98477.00;;;;8317167;28;20314;-66
2022/01/13 10:01:46;;;;;;;31.47;12.40;;;;;2.50;98475.00;;;;8315108;28;20249;-67
2022/01/13 10:05:51;;;;;;;31.60;11.60;;;;;2.70;98469.00;;;;8317653;28;20732;-66
2022/01/13 10:09:57;;;;;;;31.43;13.23;;;;;2.70;98475.00;;;;8317226;28;20245;-67
2022/01/13 10:14:10;;;;;;;25.53;11.30;;;;;2.80;98477.00;;;;8311934;28;20227;-67
2022/01/13 10:18:14;;;;;;;31.40;13.30;;;;;2.80;98477.00;;;;8313593;28;20313;-67
2022/01/13 10:22:20;;;;;;;29.07;12.83;;;;;2.90;98479.00;;;;8312767;28;20255;-67
2022/01/13 10:26:23;;;;;;;26.70;12.90;;;;;2.90;98479.00;;;;8312887;28;20806;-66
2022/01/13 10:30:26;;;;;;;30.17;13.43;;;;;3.10;98475.00;;;;8310181;28;20764;-67
2022/01/13 10:34:32;;;;;;;31.70;13.90;;;;;3.10;98468.00;;;;8317375;28;20230;-67
2022/01/13 10:38:51;;;;;;;32.93;14.67;;;;;3.10;98476.00;;;;8315535;28;20236;-67
2022/01/13 10:43:09;;;;;;;29.93;13.67;;;;;3.40;98477.00;;;;8302583;28;20316;-67
2022/01/13 10:47:12;;;;;;;34.03;17.53;;;;;3.40;98485.00;;;;8312903;28;20263;-67
2022/01/13 10:51:25;;;;;;;31.63;14.47;;;;;3.40;98474.00;;;;8316545;28;20701;-67
2022/01/13 10:55:29;;;;;;;27.63;13.80;;;;;3.40;98477.00;;;;8314029;28;20585;-67
2022/01/13 10:59:45;;;;;;;30.57;14.03;;;;;3.20;98477.00;;;;8307811;28;20230;-67
2022/01/13 11:03:49;;;;;;;29.50;13.40;;;;;3.30;98469.00;;;;8314432;28;20729;-67
2022/01/13 11:07:53;;;;;;;31.43;14.27;;;;;3.40;98462.00;;;;8312423;28;20982;-66
2022/01/13 11:11:59;;;;;;;24.53;13.80;;;;;3.60;98465.00;;;;8316885;28;20334;-66
2022/01/13 11:16:02;;;;;;;34.90;19.17;;;;;3.60;98462.00;;;;8312021;28;20257;-67
2022/01/13 11:20:08;;;;;;;33.63;16.70;;;;;3.60;98461.00;;;;8311282;28;20232;-67
2022/01/13 11:24:14;;;;;;;23.23;13.07;;;;;3.50;98455.00;;;;8311330;28;20227;-68
2022/01/13 11:28:17;;;;;;;40.73;22.57;;;;;3.30;98449.00;;;;8311743;28;20795;-67
2022/01/13 11:32:21;;;;;;;38.23;19.30;;;;;3.30;98446.00;;;;8311946;28;20240;-67
2022/01/13 11:36:25;;;;;;;40.10;17.90;;;;;3.40;98456.00;;;;8312960;28;20231;-67
2022/01/13 11:40:38;;;;;;;30.93;15.60;;;;;3.60;98461.00;;;;8313885;28;20315;-68
2022/01/13 11:44:43;;;;;;;33.57;15.50;;;;;3.80;98471.00;;;;8314086;28;20255;-68
2022/01/13 11:49:16;;;;;;;32.30;15.73;;;;;3.90;98472.00;;;;8314601;28;20708;-68
2022/01/13 11:53:24;;;;;;;35.07;16.60;;;;;3.90;98459.00;;;;8298471;28;20234;-68
2022/01/13 11:57:29;;;;;;;32.60;15.90;;;;;3.80;98466.00;;;;8312404;28;20260;-68
2022/01/13 12:01:35;;;;;;;35.80;16.37;;;;;3.80;98471.00;;;;8311096;28;20627;-68
2022/01/13 12:05:43;;;;;;;36.50;16.70;;;;;3.80;98476.00;;;;8309992;28;20267;-67
2022/01/13 12:09:46;;;;;;;38.07;16.17;;;;;3.70;98461.00;;;;8312499;28;20314;-68
2022/01/13 12:13:51;;;;;;;29.73;15.63;;;;;3.70;98455.00;;;;8309960;28;20315;-68
2022/01/13 12:17:57;;;;;;;37.73;17.43;;;;;3.70;98445.00;;;;8312064;28;20276;-68
2022/01/13 12:22:04;;;;;;;33.23;16.33;;;;;3.80;98436.00;;;;8303745;28;20318;-68
2022/01/13 12:26:51;;;;;;;34.10;16.67;;;;;3.90;98428.00;;;;8313478;28;20262;-67
2022/01/13 12:30:56;;;;;;;35.43;17.17;;;;;4.10;98430.00;;;;8302665;28;20278;-67
2022/01/13 12:34:59;;;;;;;31.97;16.17;;;;;4.10;98415.00;;;;8311201;28;20315;-68
2022/01/13 12:39:04;;;;;;;37.07;17.57;;;;;4.10;98413.00;;;;8311003;28;20847;-69
2022/01/13 12:43:22;;;;;;;37.53;18.20;;;;;4.10;98401.00;;;;8310450;28;20252;-68
2022/01/13 12:47:27;;;;;;;423.00;131.87;;;;;4.30;98380.00;;;;8304448;28;20704;-68
2022/01/13 12:51:31;;;;;;;488.03;199.80;;;;;4.20;98370.00;;;;8305724;28;20228;-68
2022/01/13 12:55:34;;;;;;;82.73;41.60;;;;;4.00;98380.00;;;;8311958;28;20253;-68
2022/01/13 12:59:37;;;;;;;53.90;28.30;;;;;3.90;98377.00;;;;8311949;28;20334;-71
2022/01/13 13:03:42;;;;;;;45.83;21.47;;;;;3.70;98385.00;;;;8313286;28;20307;-71
2022/01/13 13:07:46;;;;;;;46.73;20.13;;;;;3.60;98391.00;;;;8309532;28;21137;-70
2022/01/13 13:11:52;;;;;;;44.07;20.10;;;;;3.70;98395.00;;;;8299598;28;20256;-68
2022/01/13 13:15:58;;;;;;;44.80;20.43;;;;;3.80;98393.00;;;;8312108;28;20638;-68
2022/01/13 13:20:05;;;;;;;40.50;18.27;;;;;3.70;98394.00;;;;8301539;28;20228;-69
2022/01/13 13:24:08;;;;;;;40.30;18.23;;;;;3.60;98386.00;;;;8303808;28;20767;-70
2022/01/13 13:28:25;;;;;;;34.87;17.20;;;;;3.40;98371.00;;;;8312462;28;20268;-69
2022/01/13 13:32:29;;;;;;;43.97;19.17;;;;;3.30;98370.00;;;;8312930;28;20217;-67
2022/01/13 13:36:35;;;;;;;47.30;19.97;;;;;3.30;98369.00;;;;8315625;28;20282;-67
2022/01/13 13:40:43;;;;;;;42.60;17.00;;;;;3.20;98364.00;;;;8318021;28;20258;-69
2022/01/13 13:44:48;;;;;;;44.37;20.03;;;;;3.10;98362.00;;;;8318755;28;20266;-70
2022/01/13 13:48:52;;;;;;;46.77;20.23;;;;;3.10;98360.00;;;;8314890;28;20246;-70
2022/01/13 13:53:08;;;;;;;50.53;21.83;;;;;3.00;98348.00;;;;8318418;28;20236;-69
2022/01/13 13:57:12;;;;;;;43.17;19.83;;;;;3.20;98350.00;;;;8339811;28;20315;-69
2022/01/13 14:01:17;;;;;;;43.47;19.97;;;;;3.20;98352.00;;;;8330895;28;20318;-69
2022/01/13 14:05:27;;;;;;;45.13;20.77;;;;;3.30;98353.00;;;;8319186;28;20232;-68
2022/01/13 14:09:39;;;;;;;51.50;20.77;;;;;3.20;98353.00;;;;8299162;28;20285;-69
2022/01/13 14:13:42;;;;;;;51.30;20.73;;;;;3.20;98350.00;;;;8319058;28;20346;-69
2022/01/13 14:17:47;;;;;;;48.20;20.47;;;;;3.10;98338.00;;;;8307776;28;20376;-69
2022/01/13 14:21:52;;;;;;;54.03;22.27;;;;;3.00;98343.00;;;;8318543;28;20258;-69
2022/01/13 14:26:04;;;;;;;49.77;20.23;;;;;3.00;98352.00;;;;8319281;28;20311;-68
2022/01/13 14:30:09;;;;;;;67.53;28.17;;;;;3.00;98349.00;;;;8318650;28;20248;-70
2022/01/13 14:34:12;;;;;;;53.13;21.67;;;;;2.90;98338.00;;;;8314251;28;20251;-68
2022/01/13 14:38:16;;;;;;;47.67;20.47;;;;;2.80;98337.00;;;;8315241;28;20252;-70
2022/01/13 14:42:31;;;;;;;52.97;20.77;;;;;2.70;98339.00;;;;8328624;28;20319;-69
2022/01/13 14:46:36;;;;;;;56.40;21.77;;;;;2.60;98348.00;;;;8324649;28;20661;-70
2022/01/13 14:50:40;;;;;;;47.97;20.37;;;;;2.60;98343.00;;;;8319674;28;20860;-69
2022/01/13 14:54:43;;;;;;;53.40;20.90;;;;;2.60;98349.00;;;;8318580;28;20886;-69
2022/01/13 14:58:48;;;;;;;49.13;19.77;;;;;2.60;98350.00;;;;8317644;28;20701;-70
2022/01/13 15:02:51;;;;;;;46.37;20.40;;;;;2.60;98363.00;;;;8318042;28;20263;-69
2022/01/13 15:06:54;;;;;;;46.90;20.07;;;;;2.50;98354.00;;;;8291871;28;20331;-68
2022/01/13 15:10:58;;;;;;;49.40;19.57;;;;;2.50;98353.00;;;;8309687;28;20781;-68
2022/01/13 15:15:04;;;;;;;47.13;20.10;;;;;2.50;98347.00;;;;8315155;28;20270;-68
2022/01/13 15:19:11;;;;;;;50.40;19.57;;;;;2.50;98341.00;;;;8307398;28;20782;-68
2022/01/13 15:23:15;;;;;;;46.73;19.70;;;;;2.40;98338.00;;;;8315082;28;20234;-68
2022/01/13 15:27:19;;;;;;;53.47;21.00;;;;;2.30;98341.00;;;;8316044;28;20231;-68
2022/01/13 15:31:24;;;;;;;45.97;19.27;;;;;2.20;98339.00;;;;8312804;28;20222;-68
2022/01/13 15:35:27;;;;;;;51.00;21.33;;;;;2.30;98339.00;;;;8283839;28;20239;-68
2022/01/13 15:39:31;;;;;;;51.20;19.47;;;;;2.20;98341.00;;;;8277845;28;20635;-69
2022/01/13 15:43:34;;;;;;;51.50;19.70;;;;;2.20;98336.00;;;;8283942;28;20249;-68
2022/01/13 15:47:40;;;;;;;52.83;19.70;;;;;2.20;98341.00;;;;8316939;28;20243;-70
2022/01/13 15:51:43;;;;;;;58.17;20.73;;;;;2.10;98337.00;;;;8309170;28;20224;-68
2022/01/13 15:55:46;;;;;;;47.53;19.43;;;;;2.10;98351.00;;;;8315425;28;20263;-68
2022/01/13 15:59:50;;;;;;;50.57;19.70;;;;;2.10;98351.00;;;;8307154;28;20322;-69
2022/01/13 16:03:54;;;;;;;54.70;20.57;;;;;2.00;98349.00;;;;8315664;28;20248;-69
2022/01/13 16:07:57;;;;;;;49.13;19.73;;;;;1.90;98350.00;;;;8312740;28;20267;-69
2022/01/13 16:12:00;;;;;;;50.00;19.90;;;;;1.90;98355.00;;;;8314974;28;20758;-70
2022/01/13 16:16:06;;;;;;;53.53;18.87;;;;;1.90;98357.00;;;;8314192;28;20227;-70
2022/01/13 16:20:12;;;;;;;47.00;18.40;;;;;1.80;98368.00;;;;8313444;28;21059;-69
2022/01/13 16:24:15;;;;;;;53.53;19.87;;;;;1.80;98368.00;;;;8311810;28;20729;-69
2022/01/13 16:28:18;;;;;;;51.80;19.43;;;;;1.90;98366.00;;;;8312402;28;20236;-69
2022/01/13 16:32:22;;;;;;;62.73;23.90;;;;;1.90;98377.00;;;;8315340;28;20264;-68
2022/01/13 16:36:26;;;;;;;65.20;24.47;;;;;2.00;98376.00;;;;8324009;28;21138;-70
2022/01/13 16:40:35;;;;;;;52.00;19.93;;;;;2.10;98370.00;;;;8311235;28;20229;-70
2022/01/13 16:44:41;;;;;;;51.00;19.33;;;;;2.10;98377.00;;;;8311813;28;20226;-70
2022/01/13 16:48:45;;;;;;;55.70;20.70;;;;;2.10;98372.00;;;;8314449;28;20310;-69
2022/01/13 16:52:50;;;;;;;53.17;19.90;;;;;2.00;98371.00;;;;8301378;28;20261;-70
2022/01/13 16:56:53;;;;;;;46.67;19.07;;;;;1.90;98363.00;;;;8302286;28;20322;-70
2022/01/13 17:00:56;;;;;;;52.63;20.33;;;;;1.80;98355.00;;;;8299625;28;20269;-71
2022/01/13 17:05:00;;;;;;;53.73;20.60;;;;;1.80;98358.00;;;;8312534;28;20230;-69
2022/01/13 17:09:05;;;;;;;53.30;20.90;;;;;1.80;98363.00;;;;8315932;28;20269;-70
2022/01/13 17:13:10;;;;;;;64.57;22.20;;;;;1.70;98355.00;;;;8310219;28;20221;-70
2022/01/13 17:17:14;;;;;;;58.33;21.30;;;;;1.70;98351.00;;;;8306584;28;21439;-70
2022/01/13 17:21:17;;;;;;;57.30;21.00;;;;;1.70;98359.00;;;;8300166;28;20225;-70
2022/01/13 17:25:22;;;;;;;60.80;21.97;;;;;1.70;98375.00;;;;8321141;28;20259;-69
2022/01/13 17:29:25;;;;;;;55.47;21.40;;;;;1.70;98374.00;;;;8316056;28;20254;-70
2022/01/13 17:33:29;;;;;;;56.10;21.20;;;;;1.80;98374.00;;;;8309344;28;20847;-70
2022/01/13 17:37:33;;;;;;;57.53;21.40;;;;;1.60;98362.00;;;;8307323;28;20301;-70
2022/01/13 17:41:38;;;;;;;55.70;21.30;;;;;1.60;98364.00;;;;8314215;28;20238;-70
2022/01/13 17:45:41;;;;;;;55.63;20.77;;;;;1.50;98353.00;;;;8310599;28;20758;-71
2022/01/13 17:49:47;;;;;;;88.80;34.80;;;;;1.40;98355.00;;;;8306230;28;20249;-70
2022/01/13 17:53:51;;;;;;;60.33;22.20;;;;;1.40;98357.00;;;;8318603;28;20725;-71
2022/01/13 17:57:55;;;;;;;56.97;21.00;;;;;1.40;98362.00;;;;8320438;28;20945;-70
2022/01/13 18:01:58;;;;;;;53.40;20.07;;;;;1.50;98355.00;;;;8312141;28;20698;-70
2022/01/13 18:06:02;;;;;;;60.07;21.17;;;;;1.60;98357.00;;;;8309616;28;20259;-69
2022/01/13 18:10:06;;;;;;;58.30;22.23;;;;;1.60;98352.00;;;;8319165;28;20318;-70
2022/01/13 18:14:11;;;;;;;125.53;47.60;;;;;1.70;98342.00;;;;8308291;28;20305;-70
2022/01/13 18:18:14;;;;;;;60.93;24.87;;;;;1.70;98340.00;;;;8312165;28;20313;-71
2022/01/13 18:22:19;;;;;;;71.90;27.63;;;;;1.80;98340.00;;;;8314246;28;20249;-73
2022/01/13 18:26:22;;;;;;;61.20;24.13;;;;;1.80;98331.00;;;;8318450;28;20309;-72
2022/01/13 18:30:26;;;;;;;87.70;36.43;;;;;1.80;98327.00;;;;8319201;28;20321;-72
2022/01/13 18:34:30;;;;;;;72.67;31.03;;;;;1.80;98321.00;;;;8319998;28;20658;-73
2022/01/13 18:38:33;;;;;;;67.93;25.07;;;;;1.80;98320.00;;;;8302241;28;20235;-70
2022/01/13 18:42:39;;;;;;;317.87;172.27;;;;;1.70;98314.00;;;;8315714;28;20260;-71
2022/01/13 18:46:48;;;;;;;160.80;73.33;;;;;1.60;98320.00;;;;8308799;28;20851;-71
2022/01/13 18:50:51;;;;;;;222.50;99.00;;;;;1.50;98312.00;;;;8312947;28;20247;-70
2022/01/13 18:54:55;;;;;;;502.00;236.87;;;;;1.40;98302.00;;;;8313957;28;20321;-70
2022/01/13 18:58:58;;;;;;;110.70;40.83;;;;;1.40;98312.00;;;;8314644;28;20314;-70
2022/01/13 19:03:03;;;;;;;138.23;51.07;;;;;1.40;98297.00;;;;8309282;28;20334;-70
2022/01/13 19:07:09;;;;;;;101.30;37.13;;;;;1.40;98295.00;;;;8311265;28;20229;-69
2022/01/13 19:11:12;;;;;;;92.90;34.83;;;;;1.50;98287.00;;;;8312970;28;20230;-71
2022/01/13 19:15:17;;;;;;;73.17;23.47;;;;;1.60;98292.00;;;;8310914;28;20322;-71
2022/01/13 19:19:27;;;;;;;145.80;56.50;;;;;1.60;98288.00;;;;8308335;28;20310;-71
2022/01/13 19:23:32;;;;;;;91.73;34.27;;;;;1.60;98289.00;;;;8307136;28;20251;-72
2022/01/13 19:27:37;;;;;;;73.53;23.27;;;;;1.50;98284.00;;;;8307817;28;20254;-73
2022/01/13 19:31:40;;;;;;;72.83;22.83;;;;;1.40;98283.00;;;;8311948;28;20314;-72
2022/01/13 19:35:45;;;;;;;66.43;20.57;;;;;1.40;98270.00;;;;8313648;28;20594;-73
2022/01/13 19:39:49;;;;;;;66.17;20.97;;;;;1.30;98271.00;;;;8302819;28;20225;-72
2022/01/13 19:43:52;;;;;;;68.10;21.60;;;;;1.20;98258.00;;;;8315086;28;20287;-71
2022/01/13 19:47:56;;;;;;;63.30;21.47;;;;;1.20;98251.00;;;;8308925;28;20229;-72
2022/01/13 19:52:00;;;;;;;64.30;21.23;;;;;1.20;98244.00;;;;8312783;28;20259;-72
2022/01/13 19:56:04;;;;;;;66.10;20.90;;;;;1.20;98247.00;;;;8311117;28;20257;-73
2022/01/13 20:00:11;;;;;;;76.03;21.03;;;;;1.20;98249.00;;;;8312124;28;20666;-72
2022/01/13 20:04:14;;;;;;;73.57;20.83;;;;;1.10;98256.00;;;;8310101;28;20317;-72
2022/01/13 20:08:18;;;;;;;73.53;23.37;;;;;1.00;98247.00;;;;8313073;28;20241;-73
2022/01/13 20:12:23;;;;;;;78.60;24.10;;;;;0.90;98255.00;;;;8309684;28;20665;-71
2022/01/13 20:16:26;;;;;;;90.97;23.67;;;;;0.90;98249.00;;;;8313271;28;20241;-72
2022/01/13 20:20:29;;;;;;;80.03;20.63;;;;;0.80;98244.00;;;;8308512;28;20229;-72